sensor_id;sensor_type;location;lat;lon;timestamp;P1;durP1;ratioP1;P2;durP2;ratioP2
25107;SDS011;13090;53.422;7.670;2023-02-07T00:00:10;15.70;;;8.02;;
25107;SDS011;13090;53.422;7.670;2023-02-07T00:05:15;24.15;;;9.40;;
25107;SDS011;13090;53.422;7.670;2023-02-07T00:10:17;14.27;;;8.75;;
25107;SDS011;13090;53.422;7.670;2023-02-07T00:15:20;16.73;;;8.85;;
25107;SDS011;13090;53.422;7.670;2023-02-07T00:20:23;26.75;;;10.77;;
25107;SDS011;13090;53.422;7.670;2023-02-07T00:25:25;19.30;;;9.50;;
25107;SDS011;13090;53.422;7.670;2023-02-07T00:30:28;17.65;;;9.63;;
25107;SDS011;13090;53.422;7.670;2023-02-07T00:35:31;23.25;;;9.85;;
25107;SDS011;13090;53.422;7.670;2023-02-07T00:40:33;23.10;;;10.75;;
25107;SDS011;13090;53.422;7.670;2023-02-07T00:45:36;20.45;;;9.60;;
25107;SDS011;13090;53.422;7.670;2023-02-07T00:50:40;26.20;;;9.63;;
25107;SDS011;13090;53.422;7.670;2023-02-07T00:55:42;20.95;;;9.63;;
25107;SDS011;13090;53.422;7.670;2023-02-07T01:00:44;20.70;;;10.02;;
25107;SDS011;13090;53.422;7.670;2023-02-07T01:05:48;20.23;;;9.18;;
25107;SDS011;13090;53.422;7.670;2023-02-07T01:10:50;15.15;;;8.10;;
25107;SDS011;13090;53.422;7.670;2023-02-07T01:15:52;19.75;;;9.95;;
25107;SDS011;13090;53.422;7.670;2023-02-07T01:20:56;18.73;;;9.55;;
25107;SDS011;13090;53.422;7.670;2023-02-07T01:25:58;20.23;;;9.63;;
25107;SDS011;13090;53.422;7.670;2023-02-07T01:31:03;17.67;;;10.02;;
25107;SDS011;13090;53.422;7.670;2023-02-07T01:36:12;21.08;;;9.48;;
25107;SDS011;13090;53.422;7.670;2023-02-07T01:41:16;16.77;;;8.18;;
25107;SDS011;13090;53.422;7.670;2023-02-07T01:46:18;22.45;;;9.23;;
25107;SDS011;13090;53.422;7.670;2023-02-07T01:51:22;16.92;;;9.13;;
25107;SDS011;13090;53.422;7.670;2023-02-07T01:56:26;20.42;;;10.25;;
25107;SDS011;13090;53.422;7.670;2023-02-07T02:01:32;19.63;;;10.23;;
25107;SDS011;13090;53.422;7.670;2023-02-07T02:06:37;15.52;;;9.68;;
25107;SDS011;13090;53.422;7.670;2023-02-07T02:17:13;19.92;;;9.07;;
25107;SDS011;13090;53.422;7.670;2023-02-07T02:28:04;20.55;;;9.77;;
25107;SDS011;13090;53.422;7.670;2023-02-07T02:33:28;19.45;;;9.93;;
25107;SDS011;13090;53.422;7.670;2023-02-07T02:38:41;18.35;;;9.82;;
25107;SDS011;13090;53.422;7.670;2023-02-07T02:43:49;22.80;;;10.30;;
25107;SDS011;13090;53.422;7.670;2023-02-07T02:48:56;16.33;;;10.52;;
25107;SDS011;13090;53.422;7.670;2023-02-07T02:54:00;16.73;;;9.63;;
25107;SDS011;13090;53.422;7.670;2023-02-07T02:59:09;19.00;;;9.90;;
25107;SDS011;13090;53.422;7.670;2023-02-07T03:04:32;19.27;;;9.63;;
25107;SDS011;13090;53.422;7.670;2023-02-07T03:09:52;17.40;;;10.45;;
25107;SDS011;13090;53.422;7.670;2023-02-07T03:15:03;18.95;;;9.45;;
25107;SDS011;13090;53.422;7.670;2023-02-07T03:20:10;19.35;;;10.63;;
25107;SDS011;13090;53.422;7.670;2023-02-07T03:25:18;19.70;;;10.90;;
25107;SDS011;13090;53.422;7.670;2023-02-07T03:30:23;16.48;;;10.20;;
25107;SDS011;13090;53.422;7.670;2023-02-07T03:35:32;16.73;;;9.73;;
25107;SDS011;13090;53.422;7.670;2023-02-07T03:40:39;15.77;;;9.70;;
25107;SDS011;13090;53.422;7.670;2023-02-07T03:45:46;15.55;;;9.93;;
25107;SDS011;13090;53.422;7.670;2023-02-07T03:50:50;16.13;;;10.32;;
25107;SDS011;13090;53.422;7.670;2023-02-07T03:55:52;19.20;;;11.18;;
25107;SDS011;13090;53.422;7.670;2023-02-07T04:00:55;19.15;;;10.75;;
25107;SDS011;13090;53.422;7.670;2023-02-07T04:05:59;22.42;;;11.65;;
25107;SDS011;13090;53.422;7.670;2023-02-07T04:11:02;18.00;;;10.18;;
25107;SDS011;13090;53.422;7.670;2023-02-07T04:16:05;19.55;;;11.15;;
25107;SDS011;13090;53.422;7.670;2023-02-07T04:21:08;16.95;;;10.90;;
25107;SDS011;13090;53.422;7.670;2023-02-07T04:26:11;17.98;;;10.70;;
25107;SDS011;13090;53.422;7.670;2023-02-07T04:31:13;17.35;;;10.18;;
25107;SDS011;13090;53.422;7.670;2023-02-07T04:36:16;15.45;;;10.05;;
25107;SDS011;13090;53.422;7.670;2023-02-07T04:41:20;17.20;;;9.57;;
25107;SDS011;13090;53.422;7.670;2023-02-07T04:46:24;16.05;;;10.40;;
25107;SDS011;13090;53.422;7.670;2023-02-07T04:51:29;26.02;;;13.52;;
25107;SDS011;13090;53.422;7.670;2023-02-07T04:56:34;18.93;;;11.20;;
25107;SDS011;13090;53.422;7.670;2023-02-07T05:01:37;24.20;;;13.05;;
25107;SDS011;13090;53.422;7.670;2023-02-07T05:06:42;27.38;;;15.27;;
25107;SDS011;13090;53.422;7.670;2023-02-07T05:11:46;28.02;;;15.40;;
25107;SDS011;13090;53.422;7.670;2023-02-07T05:22:44;26.05;;;14.05;;
25107;SDS011;13090;53.422;7.670;2023-02-07T05:27:56;28.13;;;14.23;;
25107;SDS011;13090;53.422;7.670;2023-02-07T05:33:03;29.10;;;13.80;;
25107;SDS011;13090;53.422;7.670;2023-02-07T05:38:08;18.38;;;11.15;;
25107;SDS011;13090;53.422;7.670;2023-02-07T05:43:12;25.40;;;13.27;;
25107;SDS011;13090;53.422;7.670;2023-02-07T05:48:14;19.00;;;11.73;;
25107;SDS011;13090;53.422;7.670;2023-02-07T05:53:18;22.17;;;11.95;;
25107;SDS011;13090;53.422;7.670;2023-02-07T05:58:21;39.35;;;19.83;;
25107;SDS011;13090;53.422;7.670;2023-02-07T06:03:23;21.25;;;12.63;;
25107;SDS011;13090;53.422;7.670;2023-02-07T06:08:27;18.08;;;10.75;;
25107;SDS011;13090;53.422;7.670;2023-02-07T06:13:30;28.80;;;14.20;;
25107;SDS011;13090;53.422;7.670;2023-02-07T06:18:32;18.85;;;11.80;;
25107;SDS011;13090;53.422;7.670;2023-02-07T06:23:36;22.40;;;12.60;;
25107;SDS011;13090;53.422;7.670;2023-02-07T06:28:39;24.42;;;14.23;;
25107;SDS011;13090;53.422;7.670;2023-02-07T06:33:41;56.75;;;26.42;;
25107;SDS011;13090;53.422;7.670;2023-02-07T06:38:45;20.67;;;12.30;;
25107;SDS011;13090;53.422;7.670;2023-02-07T06:43:48;20.20;;;11.73;;
25107;SDS011;13090;53.422;7.670;2023-02-07T06:49:14;21.65;;;10.98;;
25107;SDS011;13090;53.422;7.670;2023-02-07T06:54:18;27.38;;;15.52;;
25107;SDS011;13090;53.422;7.670;2023-02-07T06:59:21;22.40;;;13.23;;
25107;SDS011;13090;53.422;7.670;2023-02-07T07:04:26;23.80;;;13.80;;
25107;SDS011;13090;53.422;7.670;2023-02-07T07:09:30;26.25;;;13.52;;
25107;SDS011;13090;53.422;7.670;2023-02-07T07:14:32;29.67;;;15.52;;
25107;SDS011;13090;53.422;7.670;2023-02-07T07:19:35;30.83;;;16.42;;
25107;SDS011;13090;53.422;7.670;2023-02-07T07:24:39;25.13;;;14.50;;
25107;SDS011;13090;53.422;7.670;2023-02-07T07:29:41;25.35;;;13.52;;
25107;SDS011;13090;53.422;7.670;2023-02-07T07:34:43;20.30;;;13.13;;
25107;SDS011;13090;53.422;7.670;2023-02-07T07:39:47;19.45;;;12.65;;
25107;SDS011;13090;53.422;7.670;2023-02-07T07:44:52;18.77;;;11.93;;
25107;SDS011;13090;53.422;7.670;2023-02-07T07:49:55;21.65;;;13.25;;
25107;SDS011;13090;53.422;7.670;2023-02-07T07:54:59;20.63;;;12.13;;
25107;SDS011;13090;53.422;7.670;2023-02-07T08:00:02;18.23;;;11.40;;
25107;SDS011;13090;53.422;7.670;2023-02-07T08:05:05;21.60;;;12.38;;
25107;SDS011;13090;53.422;7.670;2023-02-07T08:10:10;22.77;;;12.40;;
25107;SDS011;13090;53.422;7.670;2023-02-07T08:15:12;18.20;;;10.85;;
25107;SDS011;13090;53.422;7.670;2023-02-07T08:20:16;19.33;;;11.30;;
25107;SDS011;13090;53.422;7.670;2023-02-07T08:25:19;17.92;;;10.35;;
25107;SDS011;13090;53.422;7.670;2023-02-07T08:30:22;15.10;;;10.15;;
25107;SDS011;13090;53.422;7.670;2023-02-07T08:35:24;15.85;;;9.85;;
25107;SDS011;13090;53.422;7.670;2023-02-07T08:40:28;15.48;;;10.85;;
25107;SDS011;13090;53.422;7.670;2023-02-07T08:45:31;14.05;;;10.02;;
25107;SDS011;13090;53.422;7.670;2023-02-07T08:50:35;13.07;;;8.98;;
25107;SDS011;13090;53.422;7.670;2023-02-07T08:55:41;13.13;;;8.40;;
25107;SDS011;13090;53.422;7.670;2023-02-07T09:00:44;10.00;;;7.90;;
25107;SDS011;13090;53.422;7.670;2023-02-07T09:05:46;9.70;;;7.18;;
25107;SDS011;13090;53.422;7.670;2023-02-07T09:10:50;11.50;;;7.55;;
25107;SDS011;13090;53.422;7.670;2023-02-07T09:15:53;11.63;;;7.78;;
25107;SDS011;13090;53.422;7.670;2023-02-07T09:20:57;8.68;;;6.75;;
25107;SDS011;13090;53.422;7.670;2023-02-07T09:26:18;10.15;;;7.05;;
25107;SDS011;13090;53.422;7.670;2023-02-07T09:31:22;8.70;;;6.30;;
25107;SDS011;13090;53.422;7.670;2023-02-07T09:36:25;11.32;;;7.30;;
25107;SDS011;13090;53.422;7.670;2023-02-07T09:41:33;7.68;;;5.57;;
25107;SDS011;13090;53.422;7.670;2023-02-07T09:46:56;9.68;;;6.47;;
25107;SDS011;13090;53.422;7.670;2023-02-07T09:52:03;9.63;;;6.70;;
25107;SDS011;13090;53.422;7.670;2023-02-07T09:57:11;11.82;;;7.03;;
25107;SDS011;13090;53.422;7.670;2023-02-07T10:02:22;10.90;;;6.75;;
25107;SDS011;13090;53.422;7.670;2023-02-07T10:07:30;9.98;;;7.28;;
25107;SDS011;13090;53.422;7.670;2023-02-07T10:12:42;7.85;;;5.88;;
25107;SDS011;13090;53.422;7.670;2023-02-07T10:18:09;8.30;;;5.65;;
25107;SDS011;13090;53.422;7.670;2023-02-07T10:23:31;9.00;;;6.15;;
25107;SDS011;13090;53.422;7.670;2023-02-07T10:34:12;9.18;;;5.55;;
25107;SDS011;13090;53.422;7.670;2023-02-07T10:39:17;7.80;;;5.18;;
25107;SDS011;13090;53.422;7.670;2023-02-07T10:44:47;9.43;;;5.85;;
25107;SDS011;13090;53.422;7.670;2023-02-07T10:49:50;10.63;;;5.68;;
25107;SDS011;13090;53.422;7.670;2023-02-07T10:54:55;7.60;;;5.63;;
25107;SDS011;13090;53.422;7.670;2023-02-07T11:05:33;7.97;;;5.22;;
25107;SDS011;13090;53.422;7.670;2023-02-07T11:10:39;7.60;;;5.57;;
25107;SDS011;13090;53.422;7.670;2023-02-07T11:15:48;8.95;;;6.00;;
25107;SDS011;13090;53.422;7.670;2023-02-07T11:20:54;7.82;;;5.35;;
25107;SDS011;13090;53.422;7.670;2023-02-07T11:25:57;6.93;;;5.45;;
25107;SDS011;13090;53.422;7.670;2023-02-07T11:31:09;7.10;;;5.88;;
25107;SDS011;13090;53.422;7.670;2023-02-07T11:36:29;6.30;;;5.10;;
25107;SDS011;13090;53.422;7.670;2023-02-07T11:41:34;6.82;;;5.93;;
25107;SDS011;13090;53.422;7.670;2023-02-07T11:46:42;5.70;;;4.43;;
25107;SDS011;13090;53.422;7.670;2023-02-07T11:51:49;7.13;;;5.60;;
25107;SDS011;13090;53.422;7.670;2023-02-07T11:56:52;8.32;;;6.15;;
25107;SDS011;13090;53.422;7.670;2023-02-07T12:02:19;6.60;;;5.60;;
25107;SDS011;13090;53.422;7.670;2023-02-07T12:07:24;7.40;;;4.60;;
25107;SDS011;13090;53.422;7.670;2023-02-07T12:12:33;6.35;;;5.50;;
25107;SDS011;13090;53.422;7.670;2023-02-07T12:17:52;5.80;;;4.65;;
25107;SDS011;13090;53.422;7.670;2023-02-07T12:23:00;4.80;;;4.30;;
25107;SDS011;13090;53.422;7.670;2023-02-07T12:28:29;5.35;;;4.43;;
25107;SDS011;13090;53.422;7.670;2023-02-07T12:33:41;5.22;;;4.47;;
25107;SDS011;13090;53.422;7.670;2023-02-07T12:38:50;7.45;;;5.22;;
25107;SDS011;13090;53.422;7.670;2023-02-07T12:43:56;8.40;;;4.95;;
25107;SDS011;13090;53.422;7.670;2023-02-07T12:49:14;6.57;;;4.20;;
25107;SDS011;13090;53.422;7.670;2023-02-07T12:54:30;5.70;;;4.80;;
25107;SDS011;13090;53.422;7.670;2023-02-07T12:59:46;5.95;;;4.75;;
25107;SDS011;13090;53.422;7.670;2023-02-07T13:05:15;7.15;;;4.65;;
25107;SDS011;13090;53.422;7.670;2023-02-07T13:10:45;5.05;;;4.32;;
25107;SDS011;13090;53.422;7.670;2023-02-07T13:15:55;5.70;;;4.80;;
25107;SDS011;13090;53.422;7.670;2023-02-07T13:21:09;6.18;;;4.22;;
25107;SDS011;13090;53.422;7.670;2023-02-07T13:26:19;11.65;;;6.93;;
25107;SDS011;13090;53.422;7.670;2023-02-07T13:31:23;6.15;;;4.53;;
25107;SDS011;13090;53.422;7.670;2023-02-07T13:36:34;5.45;;;4.25;;
25107;SDS011;13090;53.422;7.670;2023-02-07T13:41:42;4.65;;;4.15;;
25107;SDS011;13090;53.422;7.670;2023-02-07T13:47:00;5.93;;;4.67;;
25107;SDS011;13090;53.422;7.670;2023-02-07T13:52:17;5.30;;;4.55;;
25107;SDS011;13090;53.422;7.670;2023-02-07T13:57:38;7.53;;;5.07;;
25107;SDS011;13090;53.422;7.670;2023-02-07T14:02:45;6.13;;;4.60;;
25107;SDS011;13090;53.422;7.670;2023-02-07T14:07:53;6.47;;;4.93;;
25107;SDS011;13090;53.422;7.670;2023-02-07T14:12:58;6.75;;;5.35;;
25107;SDS011;13090;53.422;7.670;2023-02-07T14:18:01;7.28;;;5.05;;
25107;SDS011;13090;53.422;7.670;2023-02-07T14:23:13;6.18;;;4.70;;
25107;SDS011;13090;53.422;7.670;2023-02-07T14:28:19;7.90;;;5.43;;
25107;SDS011;13090;53.422;7.670;2023-02-07T14:33:33;9.32;;;5.75;;
25107;SDS011;13090;53.422;7.670;2023-02-07T14:38:39;8.47;;;6.37;;
25107;SDS011;13090;53.422;7.670;2023-02-07T14:43:46;7.83;;;6.17;;
25107;SDS011;13090;53.422;7.670;2023-02-07T14:49:12;13.40;;;8.90;;
25107;SDS011;13090;53.422;7.670;2023-02-07T14:54:21;11.65;;;8.23;;
25107;SDS011;13090;53.422;7.670;2023-02-07T14:59:32;10.68;;;7.45;;
25107;SDS011;13090;53.422;7.670;2023-02-07T15:04:41;8.82;;;6.32;;
25107;SDS011;13090;53.422;7.670;2023-02-07T15:09:45;12.35;;;7.25;;
25107;SDS011;13090;53.422;7.670;2023-02-07T15:14:47;10.13;;;7.68;;
25107;SDS011;13090;53.422;7.670;2023-02-07T15:19:52;9.57;;;6.68;;
25107;SDS011;13090;53.422;7.670;2023-02-07T15:24:57;15.27;;;6.97;;
25107;SDS011;13090;53.422;7.670;2023-02-07T15:30:02;9.73;;;6.43;;
25107;SDS011;13090;53.422;7.670;2023-02-07T15:35:11;20.20;;;11.80;;
25107;SDS011;13090;53.422;7.670;2023-02-07T15:40:20;10.35;;;7.30;;
25107;SDS011;13090;53.422;7.670;2023-02-07T15:45:28;10.73;;;7.72;;
25107;SDS011;13090;53.422;7.670;2023-02-07T15:50:31;15.35;;;8.60;;
25107;SDS011;13090;53.422;7.670;2023-02-07T15:55:36;9.95;;;7.18;;
25107;SDS011;13090;53.422;7.670;2023-02-07T16:00:43;12.48;;;8.45;;
25107;SDS011;13090;53.422;7.670;2023-02-07T16:05:45;14.55;;;9.00;;
25107;SDS011;13090;53.422;7.670;2023-02-07T16:10:50;11.43;;;8.38;;
25107;SDS011;13090;53.422;7.670;2023-02-07T16:15:54;13.05;;;8.68;;
25107;SDS011;13090;53.422;7.670;2023-02-07T16:20:57;14.75;;;9.30;;
25107;SDS011;13090;53.422;7.670;2023-02-07T16:26:01;12.18;;;8.10;;
25107;SDS011;13090;53.422;7.670;2023-02-07T16:31:03;22.10;;;13.85;;
25107;SDS011;13090;53.422;7.670;2023-02-07T16:36:08;19.00;;;11.95;;
25107;SDS011;13090;53.422;7.670;2023-02-07T16:41:21;13.32;;;8.63;;
25107;SDS011;13090;53.422;7.670;2023-02-07T16:46:26;12.57;;;8.30;;
25107;SDS011;13090;53.422;7.670;2023-02-07T16:51:28;15.38;;;8.93;;
25107;SDS011;13090;53.422;7.670;2023-02-07T16:56:32;14.30;;;9.27;;
25107;SDS011;13090;53.422;7.670;2023-02-07T17:01:34;13.75;;;9.10;;
25107;SDS011;13090;53.422;7.670;2023-02-07T17:06:36;14.57;;;10.10;;
25107;SDS011;13090;53.422;7.670;2023-02-07T17:11:41;14.13;;;9.30;;
25107;SDS011;13090;53.422;7.670;2023-02-07T17:16:44;18.25;;;10.98;;
25107;SDS011;13090;53.422;7.670;2023-02-07T17:21:47;17.30;;;9.98;;
25107;SDS011;13090;53.422;7.670;2023-02-07T17:26:51;16.13;;;11.35;;
25107;SDS011;13090;53.422;7.670;2023-02-07T17:31:54;18.17;;;11.90;;
25107;SDS011;13090;53.422;7.670;2023-02-07T17:36:56;18.67;;;12.00;;
25107;SDS011;13090;53.422;7.670;2023-02-07T17:42:00;15.60;;;10.48;;
25107;SDS011;13090;53.422;7.670;2023-02-07T17:47:02;20.60;;;11.60;;
25107;SDS011;13090;53.422;7.670;2023-02-07T17:52:04;19.13;;;12.70;;
25107;SDS011;13090;53.422;7.670;2023-02-07T17:57:08;20.23;;;12.48;;
25107;SDS011;13090;53.422;7.670;2023-02-07T18:02:12;23.20;;;13.05;;
25107;SDS011;13090;53.422;7.670;2023-02-07T18:07:15;28.92;;;22.55;;
25107;SDS011;13090;53.422;7.670;2023-02-07T18:12:18;17.25;;;11.10;;
25107;SDS011;13090;53.422;7.670;2023-02-07T18:17:21;21.75;;;14.40;;
25107;SDS011;13090;53.422;7.670;2023-02-07T18:22:23;19.33;;;10.90;;
25107;SDS011;13090;53.422;7.670;2023-02-07T18:27:27;18.85;;;12.13;;
25107;SDS011;13090;53.422;7.670;2023-02-07T18:32:29;22.13;;;13.65;;
25107;SDS011;13090;53.422;7.670;2023-02-07T18:37:31;21.80;;;13.52;;
25107;SDS011;13090;53.422;7.670;2023-02-07T18:42:35;22.92;;;12.15;;
25107;SDS011;13090;53.422;7.670;2023-02-07T18:47:37;24.88;;;12.43;;
25107;SDS011;13090;53.422;7.670;2023-02-07T18:52:39;19.70;;;12.10;;
25107;SDS011;13090;53.422;7.670;2023-02-07T18:57:43;17.65;;;11.60;;
25107;SDS011;13090;53.422;7.670;2023-02-07T19:02:45;16.23;;;11.43;;
25107;SDS011;13090;53.422;7.670;2023-02-07T19:07:47;21.67;;;13.32;;
25107;SDS011;13090;53.422;7.670;2023-02-07T19:12:51;20.67;;;12.85;;
25107;SDS011;13090;53.422;7.670;2023-02-07T19:17:53;21.48;;;14.02;;
25107;SDS011;13090;53.422;7.670;2023-02-07T19:22:55;22.23;;;13.75;;
25107;SDS011;13090;53.422;7.670;2023-02-07T19:27:59;23.80;;;14.98;;
25107;SDS011;13090;53.422;7.670;2023-02-07T19:33:01;25.33;;;16.05;;
25107;SDS011;13090;53.422;7.670;2023-02-07T19:38:03;21.55;;;15.30;;
25107;SDS011;13090;53.422;7.670;2023-02-07T19:43:07;20.08;;;13.23;;
25107;SDS011;13090;53.422;7.670;2023-02-07T19:48:09;29.30;;;18.77;;
25107;SDS011;13090;53.422;7.670;2023-02-07T19:53:11;29.33;;;17.88;;
25107;SDS011;13090;53.422;7.670;2023-02-07T19:58:15;30.65;;;17.88;;
25107;SDS011;13090;53.422;7.670;2023-02-07T20:03:17;42.25;;;24.80;;
25107;SDS011;13090;53.422;7.670;2023-02-07T20:08:20;34.65;;;20.30;;
25107;SDS011;13090;53.422;7.670;2023-02-07T20:13:23;28.85;;;17.65;;
25107;SDS011;13090;53.422;7.670;2023-02-07T20:18:27;34.80;;;20.33;;
25107;SDS011;13090;53.422;7.670;2023-02-07T20:23:30;29.33;;;18.10;;
25107;SDS011;13090;53.422;7.670;2023-02-07T20:28:35;27.10;;;17.65;;
25107;SDS011;13090;53.422;7.670;2023-02-07T20:33:37;31.27;;;20.67;;
25107;SDS011;13090;53.422;7.670;2023-02-07T20:38:41;28.83;;;17.40;;
25107;SDS011;13090;53.422;7.670;2023-02-07T20:43:47;29.33;;;17.00;;
25107;SDS011;13090;53.422;7.670;2023-02-07T20:48:53;27.67;;;16.05;;
25107;SDS011;13090;53.422;7.670;2023-02-07T20:53:57;29.03;;;18.33;;
25107;SDS011;13090;53.422;7.670;2023-02-07T20:59:02;29.58;;;17.65;;
25107;SDS011;13090;53.422;7.670;2023-02-07T21:04:05;31.38;;;17.45;;
25107;SDS011;13090;53.422;7.670;2023-02-07T21:09:07;29.92;;;18.38;;
25107;SDS011;13090;53.422;7.670;2023-02-07T21:14:13;31.35;;;18.80;;
25107;SDS011;13090;53.422;7.670;2023-02-07T21:19:16;23.90;;;15.37;;
25107;SDS011;13090;53.422;7.670;2023-02-07T21:24:19;27.45;;;16.20;;
25107;SDS011;13090;53.422;7.670;2023-02-07T21:29:26;37.83;;;20.25;;
25107;SDS011;13090;53.422;7.670;2023-02-07T21:34:28;28.48;;;17.92;;
25107;SDS011;13090;53.422;7.670;2023-02-07T21:39:30;38.17;;;22.05;;
25107;SDS011;13090;53.422;7.670;2023-02-07T21:44:34;42.85;;;22.17;;
25107;SDS011;13090;53.422;7.670;2023-02-07T21:49:36;36.25;;;20.50;;
25107;SDS011;13090;53.422;7.670;2023-02-07T21:54:38;33.92;;;20.05;;
25107;SDS011;13090;53.422;7.670;2023-02-07T21:59:41;41.47;;;23.48;;
25107;SDS011;13090;53.422;7.670;2023-02-07T22:04:43;32.70;;;21.02;;
25107;SDS011;13090;53.422;7.670;2023-02-07T22:09:48;37.72;;;23.60;;
25107;SDS011;13090;53.422;7.670;2023-02-07T22:14:52;35.08;;;21.27;;
25107;SDS011;13090;53.422;7.670;2023-02-07T22:19:54;36.22;;;21.25;;
25107;SDS011;13090;53.422;7.670;2023-02-07T22:24:56;33.25;;;19.75;;
25107;SDS011;13090;53.422;7.670;2023-02-07T22:30:00;36.28;;;20.77;;
25107;SDS011;13090;53.422;7.670;2023-02-07T22:35:02;36.38;;;19.10;;
25107;SDS011;13090;53.422;7.670;2023-02-07T22:40:04;34.30;;;19.13;;
25107;SDS011;13090;53.422;7.670;2023-02-07T22:45:08;34.15;;;19.33;;
25107;SDS011;13090;53.422;7.670;2023-02-07T22:50:10;32.38;;;18.70;;
25107;SDS011;13090;53.422;7.670;2023-02-07T22:55:13;36.33;;;18.83;;
25107;SDS011;13090;53.422;7.670;2023-02-07T23:00:17;31.48;;;18.38;;
25107;SDS011;13090;53.422;7.670;2023-02-07T23:05:20;40.20;;;20.77;;
25107;SDS011;13090;53.422;7.670;2023-02-07T23:10:22;40.85;;;22.52;;
25107;SDS011;13090;53.422;7.670;2023-02-07T23:15:25;37.17;;;20.83;;
25107;SDS011;13090;53.422;7.670;2023-02-07T23:20:28;38.63;;;21.30;;
25107;SDS011;13090;53.422;7.670;2023-02-07T23:25:31;36.28;;;20.50;;
25107;SDS011;13090;53.422;7.670;2023-02-07T23:30:35;33.38;;;19.80;;
25107;SDS011;13090;53.422;7.670;2023-02-07T23:35:37;28.88;;;18.42;;
25107;SDS011;13090;53.422;7.670;2023-02-07T23:40:39;32.25;;;19.08;;
25107;SDS011;13090;53.422;7.670;2023-02-07T23:45:43;29.77;;;18.05;;
25107;SDS011;13090;53.422;7.670;2023-02-07T23:50:49;30.05;;;18.80;;
25107;SDS011;13090;53.422;7.670;2023-02-07T23:55:51;31.33;;;17.55;;
